CA-0484 weather

CLOSED Barker Field
Toronto, Ontario, Canada

Public forecast

Using degrees Celsius for public forecast. Weather courtesy of forecast.io.

Closest aviation weather report (METAR) to Barker Field

Closest report is Billy Bishop Toronto City Centre Airport, 5.8 nm (10.8 km) SSE. Retrieved 2020/05/31 00:00 UTC (36 minutes ago):

CYTZ 310000Z AUTO 32011G16KT 9SM FEW075 15/05 A3005 RMK SLP179

Closest aviation forecast (TAF) to Barker Field

Closest forecast is Billy Bishop Toronto City Centre Airport, 5.8 nm (10.8 km) SSE. Retrieved 2020/05/30 20:46 UTC (4 hours ago):

TAF CYTZ 301938Z 3020/3120 28018G28KT P6SM BKN040 OVC080 BECMG 3022/3024 31012KT FM310300 34008KT P6SM FEW030 FM310800 34010KT P6SM BKN030 TEMPO 3108/3114 BKN020 FM311400 30010KT P6SM SCT040 RMK FCST BASED ON AUTO OBS NXT FCST BY 310200Z